Time;durP1;ratioP1;P1;durP2;ratioP2;P2;SDS_P1;SDS_P2;PMS_P1;PMS_P2;Temp;Humidity;BMP_temperature;BMP_pressure;BME280_temperature;BME280_humidity;BME280_pressure;Samples;Min_cycle;Max_cycle;Signal;HPM_P1;HPM_P2
2023/06/20 00:01:12;;;;;;;12.68;8.45;;;19.40;97.60;;;;;;5031398;28;20052;-71
2023/06/20 00:03:38;;;;;;;11.40;7.80;;;19.40;97.70;;;;;;5031369;28;20033;-71
2023/06/20 00:06:03;;;;;;;8.90;7.50;;;19.40;97.90;;;;;;5031241;28;20132;-71
2023/06/20 00:08:29;;;;;;;11.25;8.10;;;19.40;98.10;;;;;;5035378;28;20045;-71
2023/06/20 00:10:55;;;;;;;10.73;8.15;;;19.40;98.20;;;;;;5035301;28;20052;-71
2023/06/20 00:13:20;;;;;;;10.88;7.68;;;19.40;98.30;;;;;;5035008;28;20414;-71
2023/06/20 00:15:46;;;;;;;10.13;7.57;;;19.30;98.50;;;;;;5035010;28;20041;-71
2023/06/20 00:18:11;;;;;;;11.57;7.57;;;19.30;98.60;;;;;;5035231;28;20494;-71
2023/06/20 00:20:37;;;;;;;8.52;7.32;;;19.30;98.50;;;;;;5035151;28;20457;-71
2023/06/20 00:23:03;;;;;;;12.10;8.10;;;19.30;98.70;;;;;;5034827;28;20437;-71
2023/06/20 00:25:28;;;;;;;11.18;8.07;;;19.30;98.80;;;;;;5034719;28;20052;-71
2023/06/20 00:27:54;;;;;;;9.00;7.25;;;19.30;98.80;;;;;;5018558;28;20190;-71
2023/06/20 00:30:20;;;;;;;11.40;7.45;;;19.20;98.80;;;;;;5034721;28;20387;-71
2023/06/20 00:32:45;;;;;;;10.40;7.75;;;19.20;99.00;;;;;;5034581;28;20132;-71
2023/06/20 00:35:11;;;;;;;10.82;7.80;;;19.20;99.00;;;;;;5018011;28;20044;-71
2023/06/20 00:37:38;;;;;;;10.32;7.68;;;19.20;99.00;;;;;;5034598;28;20041;-71
2023/06/20 00:40:07;;;;;;;12.45;7.25;;;19.20;99.00;;;;;;5034568;28;20056;-71
2023/06/20 00:42:34;;;;;;;11.27;7.72;;;19.20;99.00;;;;;;5034545;28;20565;-71
2023/06/20 00:44:59;;;;;;;8.90;6.68;;;19.20;99.00;;;;;;5034428;28;20049;-71
2023/06/20 00:47:26;;;;;;;8.88;6.22;;;19.20;99.20;;;;;;5034734;28;20045;-71
2023/06/20 00:49:52;;;;;;;10.63;6.72;;;19.10;98.90;;;;;;5034339;28;20051;-71
2023/06/20 00:52:20;;;;;;;12.00;7.10;;;19.10;98.80;;;;;;5034357;28;20125;-71
2023/06/20 00:54:48;;;;;;;9.13;5.93;;;19.20;98.60;;;;;;5034414;28;20064;-71
2023/06/20 00:57:15;;;;;;;10.05;6.30;;;19.10;98.50;;;;;;5034278;28;20037;-71
2023/06/20 00:59:49;;;;;;;8.13;6.20;;;19.10;98.40;;;;;;5034562;28;20081;-71
2023/06/20 01:02:16;;;;;;;8.55;6.57;;;19.10;98.30;;;;;;5034136;28;20390;-71
2023/06/20 01:04:45;;;;;;;10.30;6.97;;;19.10;98.70;;;;;;5034019;28;20080;-71
2023/06/20 01:07:28;;;;;;;10.45;6.13;;;19.10;98.30;;;;;;5017681;28;20042;-71
2023/06/20 01:10:08;;;;;;;9.80;6.57;;;19.00;98.40;;;;;;5035892;28;20147;-71
2023/06/20 01:13:04;;;;;;;9.00;6.30;;;19.00;98.30;;;;;;5033961;28;20052;-71
2023/06/20 01:15:54;;;;;;;9.30;6.00;;;19.10;98.30;;;;;;5035609;28;20045;-71
2023/06/20 01:18:45;;;;;;;8.75;6.10;;;19.00;98.50;;;;;;5032678;28;20056;-71
2023/06/20 01:21:15;;;;;;;10.30;6.53;;;19.00;98.60;;;;;;5017384;28;20053;-71
2023/06/20 01:23:51;;;;;;;10.75;7.18;;;19.00;98.60;;;;;;5034108;28;20045;-71
2023/06/20 01:26:23;;;;;;;9.13;6.20;;;19.00;98.60;;;;;;5033663;28;20045;-71
2023/06/20 01:29:06;;;;;;;10.10;6.30;;;19.00;98.70;;;;;;5033746;28;20045;-71
2023/06/20 01:31:36;;;;;;;9.25;6.53;;;19.00;98.80;;;;;;5033911;28;20494;-71
2023/06/20 01:34:08;;;;;;;9.18;6.35;;;19.00;98.80;;;;;;5033541;28;20045;-71
2023/06/20 01:36:38;;;;;;;8.55;6.22;;;19.00;98.70;;;;;;5033498;28;20103;-71
2023/06/20 01:39:08;;;;;;;10.98;6.45;;;19.00;98.70;;;;;;5033725;28;20446;-71
2023/06/20 01:41:39;;;;;;;11.43;7.68;;;19.00;98.90;;;;;;5034055;28;20045;-71
2023/06/20 01:44:09;;;;;;;10.15;6.93;;;19.00;98.90;;;;;;5033604;28;20048;-72
2023/06/20 01:46:35;;;;;;;11.55;7.70;;;19.00;98.90;;;;;;5033460;28;20045;-72
2023/06/20 01:49:02;;;;;;;12.75;7.47;;;18.90;99.00;;;;;;5033265;28;20474;-72
2023/06/20 01:51:30;;;;;;;12.38;7.72;;;18.90;99.30;;;;;;5033492;28;20077;-72
2023/06/20 01:54:00;;;;;;;12.43;7.57;;;18.90;99.40;;;;;;5033192;28;20046;-72
2023/06/20 01:56:26;;;;;;;10.45;7.95;;;18.90;99.70;;;;;;5032973;28;20046;-72
2023/06/20 01:58:54;;;;;;;11.80;8.02;;;18.90;99.80;;;;;;5033154;28;20037;-71
2023/06/20 02:01:21;;;;;;;11.32;8.32;;;18.90;99.90;;;;;;5033329;28;20060;-71
2023/06/20 02:03:48;;;;;;;11.73;7.88;;;18.90;99.90;;;;;;5033019;28;20041;-71
2023/06/20 02:06:15;;;;;;;11.75;8.82;;;18.90;99.90;;;;;;5033132;28;20140;-71
2023/06/20 02:08:41;;;;;;;13.75;8.98;;;18.90;99.90;;;;;;5033172;28;20051;-71
2023/06/20 02:11:08;;;;;;;13.65;8.88;;;18.90;99.90;;;;;;5033164;28;20409;-71
2023/06/20 02:13:35;;;;;;;14.20;9.02;;;18.90;99.90;;;;;;5032832;28;20414;-71
2023/06/20 02:16:05;;;;;;;17.33;9.15;;;19.00;99.90;;;;;;5033106;28;20048;-71
2023/06/20 02:18:31;;;;;;;11.60;9.50;;;19.00;99.90;;;;;;5032712;28;20037;-71
2023/06/20 02:21:04;;;;;;;12.30;9.30;;;19.00;99.90;;;;;;5032617;28;20030;-71
2023/06/20 02:23:31;;;;;;;13.98;9.15;;;19.00;99.90;;;;;;5032963;28;20087;-71
2023/06/20 02:26:10;;;;;;;11.00;9.10;;;19.00;99.90;;;;;;5032488;28;20049;-71
2023/06/20 02:28:42;;;;;;;11.95;9.45;;;19.00;99.90;;;;;;5015829;28;20077;-71
2023/06/20 02:31:11;;;;;;;10.82;9.25;;;19.00;99.90;;;;;;5032091;28;20124;-71
2023/06/20 02:33:40;;;;;;;14.55;9.48;;;19.00;99.90;;;;;;5033218;28;20120;-71
2023/06/20 02:36:08;;;;;;;11.73;9.73;;;18.90;99.90;;;;;;5032418;28;20087;-71
2023/06/20 02:38:34;;;;;;;13.48;10.02;;;18.90;99.90;;;;;;5032625;28;20037;-71
2023/06/20 02:41:00;;;;;;;14.90;9.70;;;18.90;99.90;;;;;;5032336;28;20544;-71
2023/06/20 02:43:25;;;;;;;14.57;9.82;;;18.90;99.90;;;;;;5032271;28;20037;-71
2023/06/20 02:45:59;;;;;;;12.20;9.82;;;18.90;99.90;;;;;;5032415;28;20080;-71
2023/06/20 02:48:35;;;;;;;13.73;10.07;;;18.90;99.90;;;;;;5032265;28;20125;-71
2023/06/20 02:51:10;;;;;;;15.00;10.07;;;18.90;99.90;;;;;;5032208;28;20052;-71
2023/06/20 02:53:43;;;;;;;13.40;10.23;;;18.90;99.90;;;;;;5032194;28;20051;-71
2023/06/20 02:56:12;;;;;;;13.23;10.27;;;18.90;99.90;;;;;;5031888;28;20045;-71
2023/06/20 02:58:43;;;;;;;16.73;10.70;;;18.90;99.90;;;;;;5032049;28;20088;-71
2023/06/20 03:01:10;;;;;;;14.75;11.15;;;18.80;99.90;;;;;;5032010;28;20033;-71
2023/06/20 03:03:40;;;;;;;16.67;10.50;;;18.80;99.90;;;;;;5031953;28;20410;-71
2023/06/20 03:06:07;;;;;;;13.70;10.95;;;18.80;99.90;;;;;;5031861;28;20538;-71
2023/06/20 03:08:33;;;;;;;13.90;10.48;;;18.80;99.90;;;;;;5031951;28;20056;-72
2023/06/20 03:11:00;;;;;;;14.32;11.45;;;18.80;99.90;;;;;;5031914;28;20041;-72
2023/06/20 03:13:27;;;;;;;12.90;11.57;;;18.70;99.90;;;;;;5033104;28;20041;-71
2023/06/20 03:15:54;;;;;;;12.00;10.75;;;18.80;99.90;;;;;;5031667;28;20080;-71
2023/06/20 03:18:20;;;;;;;14.63;11.40;;;18.80;99.90;;;;;;5031772;28;20459;-71
2023/06/20 03:20:48;;;;;;;15.45;11.60;;;18.80;99.90;;;;;;5032026;28;20076;-71
2023/06/20 03:23:14;;;;;;;17.02;11.23;;;18.80;99.90;;;;;;5031801;28;20075;-71
2023/06/20 03:25:40;;;;;;;16.67;12.38;;;18.80;99.90;;;;;;5031969;28;20163;-71
2023/06/20 03:28:06;;;;;;;16.75;12.55;;;18.80;99.90;;;;;;5031720;28;20052;-71
2023/06/20 03:30:32;;;;;;;18.58;12.30;;;18.80;99.90;;;;;;5031678;28;20049;-71
2023/06/20 03:32:58;;;;;;;15.70;11.73;;;18.80;99.90;;;;;;5031683;28;20049;-71
2023/06/20 03:35:23;;;;;;;17.80;13.38;;;18.80;99.90;;;;;;5031557;28;20041;-71
2023/06/20 03:37:49;;;;;;;14.15;12.10;;;18.80;99.90;;;;;;5031958;28;20044;-71
2023/06/20 03:40:15;;;;;;;16.77;11.95;;;18.70;99.90;;;;;;5033192;28;20124;-71
2023/06/20 03:42:41;;;;;;;15.10;12.15;;;18.80;99.90;;;;;;5035592;28;20038;-71
2023/06/20 03:45:07;;;;;;;16.02;12.18;;;18.80;99.90;;;;;;5035540;28;20049;-71
2023/06/20 03:47:33;;;;;;;17.23;11.38;;;18.80;99.90;;;;;;5035784;28;20076;-72
2023/06/20 03:49:59;;;;;;;16.00;12.80;;;18.80;99.90;;;;;;5035780;28;20508;-72
2023/06/20 03:52:24;;;;;;;16.42;12.68;;;18.80;99.90;;;;;;5035447;28;20510;-72
2023/06/20 03:54:50;;;;;;;15.48;12.00;;;18.80;99.90;;;;;;5035492;28;20045;-71
2023/06/20 03:57:15;;;;;;;15.82;12.57;;;18.80;99.90;;;;;;5035361;28;20564;-71
2023/06/20 03:59:41;;;;;;;15.23;12.35;;;18.70;99.90;;;;;;5035273;28;20516;-71
2023/06/20 04:02:07;;;;;;;14.88;11.88;;;18.70;99.90;;;;;;5035181;28;20045;-71
2023/06/20 04:04:32;;;;;;;14.52;12.23;;;18.70;99.90;;;;;;5035231;28;20041;-71
2023/06/20 04:06:58;;;;;;;19.48;12.88;;;18.70;99.90;;;;;;5035093;28;20120;-71
2023/06/20 04:09:26;;;;;;;15.68;12.45;;;18.70;99.90;;;;;;5036824;28;20029;-71
2023/06/20 04:11:53;;;;;;;16.48;12.00;;;18.60;99.90;;;;;;5035068;28;20494;-71
2023/06/20 04:14:19;;;;;;;14.60;11.45;;;18.70;99.90;;;;;;5035032;28;20045;-71
2023/06/20 04:16:47;;;;;;;16.25;11.77;;;18.70;99.90;;;;;;5034953;28;20456;-73
2023/06/20 04:19:14;;;;;;;14.23;11.73;;;18.70;99.90;;;;;;5034957;28;20046;-73
2023/06/20 04:21:40;;;;;;;15.88;11.30;;;18.70;99.90;;;;;;5034907;28;20490;-73
2023/06/20 04:24:06;;;;;;;13.55;11.13;;;18.70;99.90;;;;;;5034843;28;20055;-72
2023/06/20 04:26:31;;;;;;;17.10;10.75;;;18.80;99.90;;;;;;5035011;28;20129;-72
2023/06/20 04:28:57;;;;;;;12.60;9.93;;;18.80;99.90;;;;;;5034817;28;20049;-72
2023/06/20 04:31:23;;;;;;;15.20;10.68;;;18.80;99.90;;;;;;5034726;28;20068;-72
2023/06/20 04:33:48;;;;;;;13.30;10.48;;;18.90;99.90;;;;;;5034739;28;20037;-72
2023/06/20 04:36:14;;;;;;;12.50;10.23;;;18.80;99.90;;;;;;5034677;28;20141;-72
2023/06/20 04:38:41;;;;;;;13.02;11.05;;;18.90;99.90;;;;;;5034629;28;20502;-72
2023/06/20 04:41:07;;;;;;;11.40;10.13;;;18.90;99.90;;;;;;5034589;28;20033;-72
2023/06/20 04:43:32;;;;;;;11.70;10.18;;;18.90;99.90;;;;;;5034557;28;20051;-72
2023/06/20 04:45:58;;;;;;;14.75;10.32;;;18.90;99.90;;;;;;5034389;28;20052;-72
2023/06/20 04:48:36;;;;;;;13.68;10.27;;;19.00;99.90;;;;;;5034666;28;20048;-72
2023/06/20 04:51:02;;;;;;;14.20;10.05;;;19.00;99.90;;;;;;5034332;28;20502;-72
2023/06/20 04:53:28;;;;;;;12.80;10.13;;;19.00;99.90;;;;;;5033702;28;20517;-72
2023/06/20 04:55:54;;;;;;;11.80;9.98;;;19.10;99.90;;;;;;5033967;28;20524;-72
2023/06/20 04:58:20;;;;;;;12.02;10.73;;;19.10;99.90;;;;;;5034504;28;20402;-72
2023/06/20 05:00:46;;;;;;;10.98;9.80;;;19.10;99.90;;;;;;5034177;28;20091;-72
2023/06/20 05:03:11;;;;;;;12.90;10.82;;;19.20;99.90;;;;;;5034367;28;20082;-72
2023/06/20 05:05:39;;;;;;;15.27;10.50;;;19.20;99.90;;;;;;5017573;28;20041;-73
2023/06/20 05:08:04;;;;;;;10.73;9.60;;;19.20;99.90;;;;;;5034074;28;20208;-73
2023/06/20 05:10:30;;;;;;;14.13;10.00;;;19.20;99.90;;;;;;5034024;28;20042;-72
2023/06/20 05:12:55;;;;;;;12.52;9.75;;;19.30;99.90;;;;;;5034216;28;20048;-72
2023/06/20 05:15:24;;;;;;;14.75;9.93;;;19.30;99.90;;;;;;5033813;28;20460;-73
2023/06/20 05:17:51;;;;;;;11.20;9.25;;;19.20;99.90;;;;;;5033881;28;20121;-73
2023/06/20 05:20:17;;;;;;;12.60;9.02;;;19.30;99.90;;;;;;5034124;28;20128;-73
2023/06/20 05:22:42;;;;;;;12.60;9.45;;;19.30;99.90;;;;;;5033859;28;20040;-72
2023/06/20 05:25:08;;;;;;;16.30;9.05;;;19.30;99.90;;;;;;5033732;28;20042;-72
2023/06/20 05:27:34;;;;;;;15.50;9.80;;;19.40;99.90;;;;;;5033769;28;20056;-72
2023/06/20 05:30:00;;;;;;;11.80;9.18;;;19.40;99.90;;;;;;5033690;28;20041;-72
2023/06/20 05:32:25;;;;;;;13.65;9.68;;;19.50;99.90;;;;;;5033943;28;20045;-72
2023/06/20 05:34:51;;;;;;;14.15;9.93;;;19.50;99.90;;;;;;5033557;28;20513;-72
2023/06/20 05:37:16;;;;;;;14.55;9.73;;;19.60;99.90;;;;;;5033495;28;20052;-72
2023/06/20 05:39:42;;;;;;;13.40;10.25;;;19.60;99.60;;;;;;5033786;28;20064;-73
2023/06/20 05:42:08;;;;;;;14.57;10.68;;;19.70;99.50;;;;;;5033460;28;20045;-73
2023/06/20 05:44:33;;;;;;;13.80;9.48;;;19.70;99.20;;;;;;5033416;28;20038;-73
2023/06/20 05:46:59;;;;;;;12.80;10.00;;;19.80;99.20;;;;;;5033524;28;20048;-73
2023/06/20 05:49:25;;;;;;;12.93;9.35;;;19.80;99.00;;;;;;5033379;28;20512;-73
2023/06/20 05:51:51;;;;;;;11.70;9.98;;;19.80;98.90;;;;;;5033218;28;20486;-73
2023/06/20 05:54:16;;;;;;;11.52;9.63;;;19.90;98.70;;;;;;5033182;28;20076;-73
2023/06/20 05:56:42;;;;;;;12.18;9.93;;;19.90;98.80;;;;;;5033106;28;20045;-72
2023/06/20 05:59:08;;;;;;;13.63;9.02;;;19.90;98.70;;;;;;5033487;28;20069;-72
2023/06/20 06:01:33;;;;;;;12.43;10.13;;;20.00;98.80;;;;;;5033363;28;20107;-72
2023/06/20 06:03:59;;;;;;;15.07;9.43;;;20.00;98.70;;;;;;5033375;28;20037;-72
2023/06/20 06:06:25;;;;;;;11.63;9.20;;;20.10;98.50;;;;;;5033156;28;20045;-72
2023/06/20 06:08:51;;;;;;;15.77;9.30;;;20.10;98.40;;;;;;5033017;28;20049;-72
2023/06/20 06:11:17;;;;;;;13.00;9.38;;;20.10;98.40;;;;;;5016631;28;20124;-72
2023/06/20 06:13:42;;;;;;;14.35;9.02;;;20.20;98.50;;;;;;5033129;28;20129;-72
2023/06/20 06:16:08;;;;;;;11.90;9.15;;;20.20;98.40;;;;;;5032619;28;20034;-72
2023/06/20 06:18:34;;;;;;;14.15;9.73;;;20.20;98.40;;;;;;5033022;28;20065;-72
2023/06/20 06:21:00;;;;;;;10.38;9.00;;;20.30;98.40;;;;;;5032868;28;20518;-72
2023/06/20 06:23:25;;;;;;;10.10;8.20;;;20.40;98.30;;;;;;5032891;28;20437;-72
2023/06/20 06:25:52;;;;;;;14.30;9.23;;;20.40;98.40;;;;;;5032528;28;20413;-72
2023/06/20 06:28:18;;;;;;;11.18;8.57;;;20.50;98.30;;;;;;5032527;28;20560;-72
2023/06/20 06:30:43;;;;;;;13.65;10.00;;;20.60;98.40;;;;;;5032527;28;20060;-72
2023/06/20 06:33:10;;;;;;;12.10;9.07;;;20.70;98.10;;;;;;5032510;28;20111;-72
2023/06/20 06:35:36;;;;;;;11.73;8.73;;;20.70;98.10;;;;;;5032351;28;20128;-72
2023/06/20 06:38:04;;;;;;;10.90;9.80;;;20.70;98.20;;;;;;5032442;28;20521;-72
2023/06/20 06:40:31;;;;;;;11.52;8.90;;;20.70;98.10;;;;;;5032414;28;20048;-72
2023/06/20 06:42:56;;;;;;;12.27;9.52;;;20.80;97.90;;;;;;5032374;28;20041;-72
2023/06/20 06:45:22;;;;;;;12.82;9.00;;;20.80;98.10;;;;;;5032281;28;20059;-72
2023/06/20 06:47:48;;;;;;;13.30;8.90;;;20.90;98.00;;;;;;5032455;28;20087;-72
2023/06/20 06:50:15;;;;;;;10.57;9.10;;;21.00;97.70;;;;;;5032199;28;20088;-72
2023/06/20 06:52:41;;;;;;;12.02;9.10;;;21.00;97.60;;;;;;5032471;28;20033;-72
2023/06/20 06:55:07;;;;;;;11.77;9.02;;;21.10;97.70;;;;;;5032103;28;20555;-72
2023/06/20 06:57:33;;;;;;;12.45;8.77;;;21.20;97.70;;;;;;5032098;28;20045;-72
2023/06/20 06:59:59;;;;;;;11.35;8.40;;;21.20;97.50;;;;;;5032374;28;20178;-72
2023/06/20 07:02:26;;;;;;;10.55;9.32;;;21.30;97.30;;;;;;5032031;28;20068;-72
2023/06/20 07:04:53;;;;;;;9.75;8.75;;;21.40;97.20;;;;;;5031942;28;20457;-72
2023/06/20 07:07:18;;;;;;;13.30;8.95;;;21.40;97.20;;;;;;5032263;28;20042;-72
2023/06/20 07:09:44;;;;;;;11.07;9.02;;;21.50;97.00;;;;;;5032254;28;20521;-72
2023/06/20 07:12:09;;;;;;;10.05;8.80;;;21.60;96.80;;;;;;5031920;28;20409;-72
2023/06/20 07:14:35;;;;;;;10.07;8.77;;;21.60;96.90;;;;;;5031884;28;20050;-72
2023/06/20 07:17:01;;;;;;;11.98;8.98;;;21.70;97.20;;;;;;5031292;28;20052;-72
2023/06/20 07:19:26;;;;;;;13.20;8.98;;;21.70;97.20;;;;;;5032138;28;20045;-72
2023/06/20 07:21:52;;;;;;;10.23;8.95;;;21.80;97.00;;;;;;5031805;28;20456;-72
2023/06/20 07:24:18;;;;;;;9.55;8.02;;;21.80;96.70;;;;;;5031785;28;20037;-72
2023/06/20 07:26:43;;;;;;;11.57;9.45;;;21.90;96.80;;;;;;5031724;28;20124;-72
2023/06/20 07:29:09;;;;;;;9.73;8.73;;;21.90;96.60;;;;;;5031772;28;20049;-72
2023/06/20 07:31:34;;;;;;;10.77;9.07;;;22.00;96.50;;;;;;5031724;28;20077;-72
2023/06/20 07:34:00;;;;;;;10.93;8.38;;;22.00;96.50;;;;;;5031988;28;20049;-72
2023/06/20 07:36:25;;;;;;;9.25;7.95;;;22.00;96.40;;;;;;5015130;28;20413;-72
2023/06/20 07:38:51;;;;;;;10.35;8.45;;;22.10;96.40;;;;;;5031672;28;20092;-75
2023/06/20 07:41:17;;;;;;;10.02;8.32;;;22.20;96.30;;;;;;5031655;28;20049;-74
2023/06/20 07:43:43;;;;;;;10.48;7.90;;;22.20;96.20;;;;;;5031635;28;20121;-75
2023/06/20 07:46:09;;;;;;;9.10;7.93;;;22.20;95.90;;;;;;5031818;28;20049;-74
2023/06/20 07:48:34;;;;;;;11.25;9.00;;;22.30;95.90;;;;;;5031822;28;20490;-74
2023/06/20 07:51:01;;;;;;;8.70;7.80;;;22.30;96.00;;;;;;5031555;28;20049;-76
2023/06/20 07:53:26;;;;;;;11.68;8.50;;;22.30;95.90;;;;;;5031518;28;20476;-76
2023/06/20 07:55:54;;;;;;;9.95;8.35;;;22.30;95.90;;;;;;5031274;28;20120;-76
2023/06/20 07:58:20;;;;;;;9.35;8.40;;;22.20;95.70;;;;;;5031460;28;20457;-76
2023/06/20 08:00:46;;;;;;;8.75;7.93;;;22.20;95.70;;;;;;5031450;28;20042;-77
2023/06/20 08:03:11;;;;;;;12.10;8.50;;;22.20;95.80;;;;;;5031710;28;20041;-77
2023/06/20 08:05:37;;;;;;;12.65;8.85;;;22.20;95.80;;;;;;5031951;28;20391;-75
2023/06/20 08:08:03;;;;;;;11.02;8.00;;;22.30;95.90;;;;;;5031411;28;20406;-77
2023/06/20 08:10:28;;;;;;;11.80;8.43;;;22.30;95.80;;;;;;5031368;28;20037;-75
2023/06/20 08:12:54;;;;;;;15.20;9.57;;;22.30;95.80;;;;;;5031636;28;20035;-75
2023/06/20 08:15:20;;;;;;;11.98;9.10;;;22.40;95.60;;;;;;5031256;28;20482;-76
2023/06/20 08:17:45;;;;;;;11.25;9.32;;;22.40;95.60;;;;;;5031299;28;20045;-76
2023/06/20 08:20:11;;;;;;;10.45;8.95;;;22.40;95.90;;;;;;5031360;28;20045;-72
2023/06/20 08:22:37;;;;;;;9.88;8.88;;;22.40;96.00;;;;;;5031632;28;20041;-72
2023/06/20 08:25:03;;;;;;;16.75;9.15;;;22.40;96.00;;;;;;5031256;28;20222;-72
2023/06/20 08:27:29;;;;;;;11.25;9.40;;;22.40;96.10;;;;;;5031921;28;20080;-72
2023/06/20 08:29:54;;;;;;;11.13;9.07;;;22.40;96.10;;;;;;5035117;28;20077;-72
2023/06/20 08:32:20;;;;;;;10.98;9.82;;;22.50;96.40;;;;;;5035002;28;20549;-72
2023/06/20 08:34:49;;;;;;;11.13;9.60;;;22.50;96.30;;;;;;5034680;28;20053;-72
2023/06/20 08:37:18;;;;;;;11.13;9.85;;;22.50;96.30;;;;;;5034723;28;20108;-73
2023/06/20 08:39:44;;;;;;;10.98;9.63;;;22.50;96.20;;;;;;5034937;28;20148;-73
2023/06/20 08:42:10;;;;;;;11.63;9.45;;;22.50;96.40;;;;;;5018109;28;20468;-72
2023/06/20 08:44:36;;;;;;;10.35;9.35;;;22.50;96.70;;;;;;5034613;28;20045;-72
2023/06/20 08:47:02;;;;;;;11.35;9.25;;;22.60;96.20;;;;;;5018175;28;20056;-72
2023/06/20 08:49:28;;;;;;;10.02;8.82;;;22.60;96.50;;;;;;5034734;28;20044;-73
2023/06/20 08:51:58;;;;;;;13.35;9.13;;;22.70;96.60;;;;;;5034623;28;20480;-72
2023/06/20 08:54:26;;;;;;;13.10;9.18;;;22.70;96.20;;;;;;5034473;28;20045;-72
2023/06/20 08:56:53;;;;;;;9.85;8.70;;;22.90;96.00;;;;;;5034141;28;20077;-72
2023/06/20 08:59:21;;;;;;;11.55;8.82;;;23.00;95.80;;;;;;5035002;28;20091;-72
2023/06/20 09:01:47;;;;;;;9.90;8.93;;;23.20;95.90;;;;;;5034533;28;20069;-72
2023/06/20 09:04:13;;;;;;;11.60;9.60;;;23.30;95.70;;;;;;5034482;28;20042;-72
2023/06/20 09:06:38;;;;;;;12.80;8.68;;;23.30;95.30;;;;;;5034109;28;20521;-72
2023/06/20 09:09:05;;;;;;;10.52;8.75;;;23.40;95.30;;;;;;5034433;28;20132;-72
2023/06/20 09:11:35;;;;;;;10.63;8.55;;;23.50;95.40;;;;;;5034121;28;20037;-72
2023/06/20 09:14:01;;;;;;;8.80;7.90;;;23.70;95.40;;;;;;5034281;28;20049;-72
2023/06/20 09:16:30;;;;;;;9.85;8.20;;;23.80;95.00;;;;;;5034202;28;20056;-72
2023/06/20 09:19:03;;;;;;;12.63;7.60;;;24.20;94.90;;;;;;5033919;28;20046;-72
2023/06/20 09:21:28;;;;;;;9.48;7.95;;;24.60;94.50;;;;;;5033883;28;20034;-72
2023/06/20 09:24:02;;;;;;;10.15;7.07;;;25.00;93.50;;;;;;5033939;28;20033;-72
2023/06/20 09:26:30;;;;;;;9.32;6.30;;;25.40;93.10;;;;;;5033953;28;20037;-72
2023/06/20 09:29:11;;;;;;;7.78;6.75;;;25.60;92.10;;;;;;5033771;28;20057;-73
2023/06/20 09:31:45;;;;;;;7.35;6.63;;;25.70;91.20;;;;;;5033722;28;20490;-72
2023/06/20 09:34:18;;;;;;;7.85;6.50;;;25.80;90.90;;;;;;5033704;28;20049;-73
2023/06/20 09:36:45;;;;;;;9.63;6.20;;;25.70;90.30;;;;;;5033417;28;20049;-72
2023/06/20 09:39:13;;;;;;;8.05;6.22;;;25.60;90.10;;;;;;5034435;28;20041;-72
2023/06/20 09:41:49;;;;;;;6.35;5.40;;;25.70;90.10;;;;;;5033532;28;20108;-73
2023/06/20 09:44:16;;;;;;;6.63;5.80;;;25.70;89.70;;;;;;5033563;28;20068;-73
2023/06/20 09:46:42;;;;;;;10.00;5.95;;;25.70;89.10;;;;;;5033380;28;20127;-72
2023/06/20 09:49:13;;;;;;;7.38;5.55;;;25.90;88.20;;;;;;5033327;28;20077;-73
2023/06/20 09:51:49;;;;;;;7.95;5.72;;;26.10;87.70;;;;;;5033366;28;20494;-72
2023/06/20 09:54:31;;;;;;;7.05;5.35;;;26.40;87.20;;;;;;5033313;28;20056;-72
2023/06/20 09:57:04;;;;;;;5.90;5.28;;;26.60;87.70;;;;;;5033166;28;20053;-71
2023/06/20 09:59:32;;;;;;;6.85;5.63;;;26.90;86.00;;;;;;5016774;28;20033;-71
2023/06/20 10:01:59;;;;;;;6.85;5.60;;;27.20;84.00;;;;;;5034368;28;20037;-71
2023/06/20 10:04:27;;;;;;;6.70;5.32;;;27.30;82.20;;;;;;5033071;28;20053;-72
2023/06/20 10:06:55;;;;;;;7.50;5.32;;;27.40;81.20;;;;;;5032979;28;20045;-72
2023/06/20 10:09:21;;;;;;;6.85;6.15;;;27.50;80.90;;;;;;5033273;28;20052;-72
2023/06/20 10:11:48;;;;;;;8.50;5.78;;;27.60;80.40;;;;;;5033002;28;20049;-72
2023/06/20 10:14:14;;;;;;;8.30;5.88;;;27.80;80.10;;;;;;5032913;28;20042;-72
2023/06/20 10:16:50;;;;;;;9.10;5.13;;;27.90;79.50;;;;;;5032814;28;20494;-72
2023/06/20 10:19:18;;;;;;;7.63;5.30;;;28.10;79.50;;;;;;5032857;28;20045;-72
2023/06/20 10:21:58;;;;;;;7.47;5.78;;;28.30;78.40;;;;;;5033000;28;20037;-72
2023/06/20 10:24:29;;;;;;;6.20;5.47;;;28.40;77.30;;;;;;5032745;28;20042;-72
2023/06/20 10:27:03;;;;;;;6.60;5.32;;;28.60;76.50;;;;;;5032636;28;20132;-72
2023/06/20 10:29:29;;;;;;;6.63;5.50;;;28.70;76.20;;;;;;5032913;28;20048;-72
2023/06/20 10:32:09;;;;;;;7.35;5.10;;;28.70;75.40;;;;;;5032502;28;20559;-72
2023/06/20 10:34:36;;;;;;;7.22;4.85;;;28.80;74.60;;;;;;5032574;28;20077;-72
2023/06/20 10:37:24;;;;;;;6.28;4.93;;;28.90;74.30;;;;;;5032384;28;20059;-72
2023/06/20 10:39:54;;;;;;;5.63;4.45;;;29.00;71.90;;;;;;5020094;28;20095;-72
2023/06/20 10:42:36;;;;;;;7.35;4.88;;;29.10;72.80;;;;;;5015895;28;20045;-72
2023/06/20 10:45:22;;;;;;;;;;;29.30;72.60;;;;;;5016499;28;20045;-72
2023/06/20 10:47:48;;;;;;;5.57;4.78;;;29.30;71.90;;;;;;5032290;28;19924;-72
2023/06/20 10:50:15;;;;;;;5.82;4.55;;;29.40;72.00;;;;;;5032812;28;20494;-72
2023/06/20 10:52:41;;;;;;;6.00;4.72;;;29.50;71.70;;;;;;5032456;28;20494;-72
2023/06/20 10:55:14;;;;;;;5.78;5.03;;;29.60;70.90;;;;;;5033667;28;20043;-72
2023/06/20 10:57:50;;;;;;;5.85;5.03;;;29.70;69.80;;;;;;5015533;28;20045;-73
2023/06/20 11:00:18;;;;;;;6.35;5.05;;;29.80;69.30;;;;;;5032325;28;20053;-75
2023/06/20 11:02:54;;;;;;;6.05;4.72;;;29.90;69.30;;;;;;5032278;28;20038;-72
2023/06/20 11:05:27;;;;;;;10.18;5.18;;;30.10;67.60;;;;;;5033724;28;20099;-72
2023/06/20 11:08:01;;;;;;;4.63;4.10;;;30.10;68.30;;;;;;5033221;28;20494;-72
2023/06/20 11:10:27;;;;;;;6.00;4.50;;;30.20;69.00;;;;;;5032165;28;20045;-71
2023/06/20 11:12:54;;;;;;;5.82;4.40;;;30.40;68.20;;;;;;5033153;28;20454;-72
2023/06/20 11:15:20;;;;;;;6.65;4.65;;;30.60;67.50;;;;;;5033548;28;20037;-72
2023/06/20 11:17:46;;;;;;;7.20;4.45;;;30.80;67.20;;;;;;5031829;28;20045;-72
2023/06/20 11:20:12;;;;;;;8.93;4.25;;;31.00;66.20;;;;;;5031866;28;20502;-72
2023/06/20 11:22:38;;;;;;;5.15;4.20;;;31.30;66.20;;;;;;5031860;28;20120;-71
2023/06/20 11:25:06;;;;;;;7.80;4.15;;;31.40;64.70;;;;;;5032325;28;20042;-71
2023/06/20 11:27:31;;;;;;;6.93;4.03;;;31.50;64.30;;;;;;5033712;28;20072;-72
2023/06/20 11:29:57;;;;;;;10.05;4.82;;;31.40;63.80;;;;;;5031756;28;20463;-72
2023/06/20 11:32:22;;;;;;;7.57;4.20;;;31.40;63.10;;;;;;5031828;28;20049;-72
2023/06/20 11:34:56;;;;;;;6.45;4.57;;;31.40;62.70;;;;;;5031926;28;20080;-72
2023/06/20 11:37:22;;;;;;;7.22;4.80;;;31.40;62.60;;;;;;5033189;28;20068;-72
2023/06/20 11:39:48;;;;;;;7.07;4.70;;;31.40;62.20;;;;;;5032215;28;20394;-73
2023/06/20 11:42:18;;;;;;;5.70;4.95;;;31.50;62.30;;;;;;5033450;28;20037;-73
2023/06/20 11:44:44;;;;;;;5.43;4.93;;;31.50;62.00;;;;;;5033212;28;20117;-72
2023/06/20 11:47:10;;;;;;;8.45;5.10;;;31.50;62.50;;;;;;5031634;28;20084;-72
2023/06/20 11:49:40;;;;;;;7.05;5.13;;;31.50;62.80;;;;;;5033441;28;20073;-72
2023/06/20 11:52:07;;;;;;;5.72;5.13;;;31.50;61.80;;;;;;5031624;28;20387;-72
2023/06/20 11:54:52;;;;;;;6.22;4.78;;;31.60;62.00;;;;;;5031687;28;20049;-72
2023/06/20 11:57:24;;;;;;;4.90;4.40;;;31.60;62.00;;;;;;5031498;28;20558;-72
2023/06/20 11:59:49;;;;;;;5.28;4.25;;;31.40;60.80;;;;;;5033317;28;20049;-72
2023/06/20 12:02:15;;;;;;;7.30;4.50;;;31.20;61.30;;;;;;5033432;28;20037;-72
2023/06/20 12:04:43;;;;;;;4.15;3.65;;;31.30;61.00;;;;;;5036610;28;20041;-72
2023/06/20 12:07:08;;;;;;;6.63;4.28;;;31.40;61.20;;;;;;5035321;28;20125;-72
2023/06/20 12:09:40;;;;;;;8.40;4.00;;;31.50;60.20;;;;;;5035308;28;20176;-72
2023/06/20 12:12:07;;;;;;;11.15;4.63;;;31.60;60.20;;;;;;5036741;28;20094;-72
2023/06/20 12:14:32;;;;;;;6.13;4.35;;;31.60;59.60;;;;;;5035208;28;20123;-72
2023/06/20 12:16:58;;;;;;;8.18;4.10;;;31.40;59.90;;;;;;5034993;28;20069;-72
2023/06/20 12:19:24;;;;;;;6.90;4.47;;;31.50;60.70;;;;;;5035107;28;20116;-72
2023/06/20 12:21:49;;;;;;;8.30;4.93;;;31.60;60.10;;;;;;5035031;28;20037;-72
2023/06/20 12:24:15;;;;;;;4.68;4.15;;;31.60;60.10;;;;;;5034964;28;20069;-72
2023/06/20 12:26:43;;;;;;;6.60;4.18;;;31.60;60.90;;;;;;5036103;28;20107;-72
2023/06/20 12:29:09;;;;;;;5.05;4.53;;;31.60;60.90;;;;;;5036133;28;20057;-72
2023/06/20 12:31:34;;;;;;;5.57;4.57;;;31.60;60.60;;;;;;5034840;28;20037;-72
2023/06/20 12:34:00;;;;;;;7.35;4.63;;;31.60;60.90;;;;;;5036342;28;20107;-72
2023/06/20 12:36:26;;;;;;;8.38;4.38;;;31.50;60.00;;;;;;5034792;28;20581;-72
2023/06/20 12:38:51;;;;;;;5.07;4.60;;;31.60;60.00;;;;;;5034729;28;20041;-72
2023/06/20 12:41:17;;;;;;;6.80;4.82;;;31.70;60.00;;;;;;5034674;28;20041;-72